Time;durP1;ratioP1;P1;durP2;ratioP2;P2;SDS_P1;SDS_P2;PMS_P1;PMS_P2;Temp;Humidity;BMP_temperature;BMP_pressure;BME280_temperature;BME280_humidity;BME280_pressure;Samples;Min_cycle;Max_cycle;Signal;HPM_P1;HPM_P2
2021/05/30 00:01:53;;;;;;;10.90;5.85;;;;;;;15.24;92.81;97414.78;5010148;28;20401;-80
2021/05/30 00:04:19;;;;;;;6.75;5.50;;;;;;;15.14;92.83;97405.75;5000601;28;20042;-81
2021/05/30 00:06:45;;;;;;;10.05;6.10;;;;;;;15.08;94.14;97417.88;5016739;28;20036;-80
2021/05/30 00:09:11;;;;;;;10.90;6.10;;;;;;;15.04;93.71;97415.59;4985548;28;20452;-80
2021/05/30 00:11:37;;;;;;;7.15;6.25;;;;;;;15.02;93.77;97415.69;4980617;28;20414;-80
2021/05/30 00:14:03;;;;;;;9.60;6.50;;;;;;;14.99;94.38;97420.47;5002579;28;20110;-80
2021/05/30 00:16:29;;;;;;;9.25;6.18;;;;;;;14.94;95.01;97407.41;5016376;28;20040;-80
2021/05/30 00:18:54;;;;;;;12.45;6.95;;;;;;;14.94;94.65;97415.47;5016723;28;20029;-80
2021/05/30 00:21:21;;;;;;;10.07;6.55;;;;;;;14.94;94.43;97409.22;4992360;28;20136;-80
2021/05/30 00:23:46;;;;;;;14.25;6.43;;;;;;;14.89;93.80;97408.75;4980350;28;20032;-80
2021/05/30 00:26:12;;;;;;;9.35;6.10;;;;;;;14.87;92.81;97408.00;4994964;28;20030;-81
2021/05/30 00:28:38;;;;;;;6.90;6.15;;;;;;;14.87;92.19;97411.56;4999284;28;20034;-80
2021/05/30 00:31:03;;;;;;;6.25;5.40;;;;;;;14.80;91.80;97404.09;4999854;28;20033;-80
2021/05/30 00:33:29;;;;;;;8.32;5.57;;;;;;;14.75;92.09;97406.31;4991140;28;20391;-80
2021/05/30 00:35:55;;;;;;;6.38;5.75;;;;;;;14.72;92.12;97410.13;4980284;28;20041;-80
2021/05/30 00:38:20;;;;;;;6.35;5.57;;;;;;;14.68;92.01;97405.09;4988247;28;20029;-80
2021/05/30 00:40:46;;;;;;;8.32;5.50;;;;;;;14.69;91.66;97417.56;4980132;28;20124;-80
2021/05/30 00:43:12;;;;;;;6.03;5.20;;;;;;;14.62;91.58;97401.91;4986065;28;20067;-80
2021/05/30 00:45:37;;;;;;;5.93;5.20;;;;;;;14.59;91.26;97402.16;5015892;28;20484;-80
2021/05/30 00:48:03;;;;;;;7.07;5.35;;;;;;;14.63;90.98;97400.09;4986684;28;20064;-80
2021/05/30 00:50:29;;;;;;;5.80;5.20;;;;;;;14.62;91.10;97398.38;4980214;28;20528;-81
2021/05/30 00:52:55;;;;;;;9.38;5.75;;;;;;;14.60;91.33;97403.88;5015822;28;20053;-80
2021/05/30 00:55:22;;;;;;;7.55;5.63;;;;;;;14.54;91.65;97398.13;4999427;28;20132;-80
2021/05/30 00:57:48;;;;;;;5.70;5.20;;;;;;;14.59;91.62;97406.69;4980549;28;20026;-80
2021/05/30 01:00:14;;;;;;;10.43;5.88;;;;;;;14.60;92.26;97414.66;4987966;28;20437;-80
2021/05/30 01:02:40;;;;;;;9.55;5.80;;;;;;;14.51;92.08;97399.25;5021591;28;20037;-80
2021/05/30 01:05:09;;;;;;;9.43;5.45;;;;;;;14.58;92.38;97408.50;4984934;28;20083;-80
2021/05/30 01:07:40;;;;;;;8.95;5.32;;;;;;;14.56;91.23;97402.41;5015456;28;20029;-80
2021/05/30 01:10:25;;;;;;;6.33;5.70;;;;;;;14.53;90.83;97412.56;4999953;28;20030;-80
2021/05/30 01:12:51;;;;;;;6.30;5.40;;;;;;;14.53;90.49;97409.88;4999264;28;20481;-81
2021/05/30 01:15:16;;;;;;;8.02;4.97;;;;;;;14.56;90.42;97417.69;5015537;28;20156;-80
2021/05/30 01:17:43;;;;;;;7.13;5.45;;;;;;;14.51;91.02;97399.25;5013989;28;20083;-80
2021/05/30 01:20:14;;;;;;;5.82;4.78;;;;;;;14.52;88.68;97406.31;4979487;28;20033;-80
2021/05/30 01:22:39;;;;;;;8.63;5.07;;;;;;;14.36;89.14;97405.84;4979485;28;20034;-80
2021/05/30 01:25:06;;;;;;;9.52;5.30;;;;;;;14.35;90.48;97404.13;4979423;28;20036;-80
2021/05/30 01:27:31;;;;;;;6.90;4.88;;;;;;;14.41;90.97;97410.84;4987286;28;20478;-80
2021/05/30 01:29:57;;;;;;;7.10;5.70;;;;;;;14.46;93.35;97416.72;4979114;28;20042;-80
2021/05/30 01:32:23;;;;;;;9.23;5.10;;;;;;;14.42;90.06;97397.28;4979372;28;20065;-80
2021/05/30 01:34:48;;;;;;;13.00;5.47;;;;;;;14.41;91.29;97410.84;4979159;28;20037;-80
2021/05/30 01:37:14;;;;;;;10.13;5.78;;;;;;;14.40;91.80;97403.75;4995325;28;20096;-80
2021/05/30 01:39:39;;;;;;;7.65;5.88;;;;;;;14.47;92.08;97411.22;4978911;28;20036;-80
2021/05/30 01:42:06;;;;;;;7.70;5.25;;;;;;;14.51;92.01;97415.41;4979131;28;20371;-80
2021/05/30 01:44:32;;;;;;;6.28;5.68;;;;;;;14.53;92.85;97416.13;4994784;28;20036;-80
2021/05/30 01:46:57;;;;;;;6.53;5.93;;;;;;;14.54;93.36;97414.28;4995159;28;20026;-80
2021/05/30 01:49:23;;;;;;;8.15;5.80;;;;;;;14.47;93.44;97419.28;4978858;28;20413;-80
2021/05/30 01:51:48;;;;;;;14.60;5.38;;;;;;;14.52;93.04;97422.47;4994900;28;20533;-80
2021/05/30 01:54:18;;;;;;;5.90;5.28;;;;;;;14.40;92.90;97418.06;4978900;28;20402;-80
2021/05/30 01:56:55;;;;;;;6.20;5.60;;;;;;;14.38;93.54;97422.72;4995423;28;20038;-80
2021/05/30 01:59:22;;;;;;;8.63;6.00;;;;;;;14.36;94.40;97424.69;4996768;28;20037;-80
2021/05/30 02:01:49;;;;;;;10.60;6.22;;;;;;;14.23;96.44;97420.34;4978693;28;20493;-80
2021/05/30 02:04:15;;;;;;;10.40;6.22;;;;;;;14.26;96.39;97426.34;4978683;28;20025;-80
2021/05/30 02:06:42;;;;;;;7.88;6.70;;;;;;;14.19;97.04;97419.72;4978420;28;20040;-80
2021/05/30 02:09:09;;;;;;;10.27;6.40;;;;;;;14.24;98.00;97430.13;4978491;28;20109;-80
2021/05/30 02:11:34;;;;;;;9.30;6.53;;;;;;;14.20;98.23;97426.84;4994849;28;20022;-80
2021/05/30 02:14:01;;;;;;;12.13;6.68;;;;;;;14.15;99.23;97420.94;4994453;28;20040;-79
2021/05/30 02:16:30;;;;;;;11.35;6.90;;;;;;;14.19;99.22;97430.50;4978687;28;20033;-79
2021/05/30 02:18:57;;;;;;;9.00;6.47;;;;;;;14.15;100.00;97422.78;4978247;28;20477;-79
2021/05/30 02:21:22;;;;;;;11.57;6.90;;;;;;;14.21;99.60;97427.69;4978859;28;20173;-80
2021/05/30 02:23:48;;;;;;;7.30;6.43;;;;;;;14.13;100.00;97431.84;4994394;28;20061;-80
2021/05/30 02:26:14;;;;;;;11.77;6.50;;;;;;;14.11;100.00;97422.16;4978333;28;20025;-79
2021/05/30 02:28:39;;;;;;;12.35;7.13;;;;;;;14.13;100.00;97421.06;4979542;28;20080;-80
2021/05/30 02:31:05;;;;;;;12.23;7.22;;;;;;;14.07;100.00;97420.69;5013898;28;20037;-79
2021/05/30 02:33:30;;;;;;;7.93;6.97;;;;;;;14.04;100.00;97424.47;4997664;28;20040;-79
2021/05/30 02:35:56;;;;;;;8.85;6.40;;;;;;;13.96;100.00;97407.22;4997387;28;20268;-80
2021/05/30 02:38:22;;;;;;;11.52;6.78;;;;;;;13.98;100.00;97424.09;4984420;28;20029;-79
2021/05/30 02:40:48;;;;;;;8.13;6.70;;;;;;;13.98;99.97;97407.97;4977968;28;20033;-79
2021/05/30 02:43:13;;;;;;;8.05;6.68;;;;;;;14.01;99.82;97410.41;4996237;28;20402;-80
2021/05/30 02:45:39;;;;;;;9.73;6.40;;;;;;;14.08;100.00;97414.34;4982172;28;20116;-80
2021/05/30 02:48:04;;;;;;;6.70;6.00;;;;;;;14.07;98.34;97415.31;4993963;28;20040;-80
2021/05/30 02:50:30;;;;;;;10.45;6.60;;;;;;;14.02;96.90;97418.38;4994112;28;20041;-79
2021/05/30 02:52:56;;;;;;;6.85;6.15;;;;;;;13.98;97.82;97426.78;4993796;28;20099;-80
2021/05/30 02:55:21;;;;;;;10.93;5.70;;;;;;;14.07;97.26;97436.81;4980363;28;20409;-80
2021/05/30 02:57:47;;;;;;;9.98;6.80;;;;;;;14.03;99.50;97429.97;4989199;28;20481;-80
2021/05/30 03:00:13;;;;;;;7.82;7.03;;;;;;;14.03;99.85;97429.97;4977762;28;20158;-81
2021/05/30 03:02:39;;;;;;;9.82;7.05;;;;;;;14.06;100.00;97433.28;4983555;28;20032;-81
2021/05/30 03:05:06;;;;;;;11.25;7.88;;;;;;;14.15;100.00;97439.75;5011181;28;20401;-81
2021/05/30 03:07:32;;;;;;;12.68;8.30;;;;;;;14.11;100.00;97438.31;4977642;28;20056;-81
2021/05/30 03:09:57;;;;;;;13.05;8.10;;;;;;;14.11;100.00;97435.63;4978567;28;20017;-81
2021/05/30 03:12:23;;;;;;;8.07;6.53;;;;;;;14.06;100.00;97435.09;4992546;28;20516;-82
2021/05/30 03:14:49;;;;;;;11.27;6.40;;;;;;;14.12;100.00;97445.38;4985601;28;20022;-81
2021/05/30 03:17:14;;;;;;;7.50;6.63;;;;;;;14.11;100.00;97438.31;4980633;28;20122;-81
2021/05/30 03:19:40;;;;;;;7.25;5.82;;;;;;;14.00;98.91;97430.19;4988951;28;20018;-88
2021/05/30 03:22:07;;;;;;;6.80;5.63;;;;;;;14.04;96.89;97442.44;4997415;28;20029;-85
2021/05/30 03:24:32;;;;;;;11.52;5.80;;;;;;;14.07;96.86;97431.44;4991357;28;20026;-77
2021/05/30 03:26:58;;;;;;;13.30;5.60;;;;;;;14.18;95.70;97444.91;4996754;28;20029;-76
2021/05/30 03:29:24;;;;;;;9.77;5.32;;;;;;;14.23;94.76;97449.94;4996785;28;20041;-80
2021/05/30 03:31:49;;;;;;;5.95;5.35;;;;;;;14.22;94.85;97448.22;5005651;28;20096;-79
2021/05/30 03:34:15;;;;;;;9.23;5.30;;;;;;;14.34;93.47;97445.47;4996314;28;20052;-77
2021/05/30 03:36:41;;;;;;;8.65;6.30;;;;;;;14.36;92.51;97448.03;5013313;28;20052;-79
2021/05/30 03:39:09;;;;;;;10.40;7.20;;;;;;;14.33;92.80;97448.28;5004398;28;20490;-79
2021/05/30 03:41:38;;;;;;;12.32;7.47;;;;;;;14.26;93.12;97442.50;4992276;28;20060;-93
2021/05/30 03:44:05;;;;;;;13.20;7.00;;;;;;;14.37;93.18;97450.59;4986747;28;20482;-92
2021/05/30 03:46:30;;;;;;;8.82;6.95;;;;;;;14.36;92.86;97437.28;4979806;28;20127;-81
2021/05/30 03:48:56;;;;;;;7.75;5.75;;;;;;;14.38;92.55;97454.16;5002068;28;20866;-81
2021/05/30 03:51:21;;;;;;;6.93;6.00;;;;;;;14.44;92.39;97443.75;4997225;28;20044;-82
2021/05/30 03:53:47;;;;;;;10.13;6.30;;;;;;;14.50;92.24;97445.09;4996715;28;20025;-82
2021/05/30 03:56:13;;;;;;;9.15;5.68;;;;;;;14.46;91.72;97433.72;4996682;28;20033;-82
2021/05/30 03:58:39;;;;;;;6.50;5.80;;;;;;;14.61;91.56;97454.03;4996839;28;20079;-82
2021/05/30 04:01:05;;;;;;;8.18;6.68;;;;;;;14.69;92.52;97439.97;4996508;28;20064;-82
2021/05/30 04:03:30;;;;;;;12.27;6.05;;;;;;;14.77;92.04;97440.22;4996721;28;20033;-82
2021/05/30 04:05:56;;;;;;;13.93;6.53;;;;;;;14.87;91.64;97443.03;5013118;28;20021;-84
2021/05/30 04:08:23;;;;;;;8.13;6.22;;;;;;;14.91;91.62;97441.81;4996987;28;20037;-81
2021/05/30 04:10:49;;;;;;;8.10;6.25;;;;;;;15.03;91.89;97443.50;5004330;28;20048;-81
2021/05/30 04:13:14;;;;;;;7.85;6.15;;;;;;;15.09;90.07;97443.00;4998362;28;20022;-82
2021/05/30 04:15:40;;;;;;;7.00;5.95;;;;;;;15.14;89.80;97449.72;5010959;28;20079;-82
2021/05/30 04:18:05;;;;;;;7.30;5.60;;;;;;;15.27;89.10;97441.47;4982875;28;20091;-81
2021/05/30 04:20:31;;;;;;;7.60;6.47;;;;;;;15.35;89.55;97440.88;4996918;28;20022;-82
2021/05/30 04:22:56;;;;;;;6.30;5.70;;;;;;;15.48;88.88;97449.66;4996733;28;20026;-82
2021/05/30 04:25:22;;;;;;;8.68;6.43;;;;;;;15.39;89.61;97429.69;4999382;28;20385;-81
2021/05/30 04:27:48;;;;;;;13.05;6.70;;;;;;;15.57;88.51;97452.44;4993630;28;20029;-82
2021/05/30 04:30:15;;;;;;;10.48;6.13;;;;;;;15.62;87.24;97461.03;4996184;28;20096;-82
2021/05/30 04:32:41;;;;;;;11.73;6.85;;;;;;;15.67;88.80;97452.53;4980248;28;20464;-82
2021/05/30 04:35:08;;;;;;;7.10;5.70;;;;;;;15.78;89.20;97449.78;4980103;28;20030;-82
2021/05/30 04:37:34;;;;;;;9.30;6.82;;;;;;;15.65;88.77;97451.81;4980202;28;20033;-82
2021/05/30 04:39:59;;;;;;;11.55;6.80;;;;;;;15.55;90.76;97443.63;4995903;28;20013;-82
2021/05/30 04:42:25;;;;;;;10.60;6.70;;;;;;;15.50;90.34;97434.22;5015820;28;20032;-82
2021/05/30 04:44:51;;;;;;;9.77;6.65;;;;;;;15.78;89.73;97447.06;4999712;28;20408;-82
2021/05/30 04:47:16;;;;;;;7.72;6.03;;;;;;;15.89;88.15;97448.88;5023482;28;20058;-82
2021/05/30 04:49:42;;;;;;;13.23;6.72;;;;;;;15.82;87.28;97453.06;5001523;28;20104;-82
2021/05/30 04:52:10;;;;;;;11.43;6.75;;;;;;;15.80;88.00;97453.22;4982754;28;20038;-81
2021/05/30 04:54:35;;;;;;;12.45;6.80;;;;;;;15.89;87.29;97451.56;4996107;28;20096;-81
2021/05/30 04:57:01;;;;;;;9.93;6.00;;;;;;;16.10;86.21;97452.44;4980081;28;20452;-82
2021/05/30 04:59:26;;;;;;;6.63;5.57;;;;;;;16.25;85.00;97448.44;4982553;28;20032;-82
2021/05/30 05:01:52;;;;;;;8.65;5.72;;;;;;;16.34;83.86;97450.31;4999314;28;20034;-82
2021/05/30 05:04:17;;;;;;;10.73;5.95;;;;;;;16.57;82.90;97446.53;4999123;28;20112;-81
2021/05/30 05:06:43;;;;;;;8.73;5.68;;;;;;;16.98;81.16;97440.13;4999312;28;20116;-82
2021/05/30 05:09:09;;;;;;;6.38;5.60;;;;;;;17.31;78.49;97441.69;5015498;28;20469;-82
2021/05/30 05:11:34;;;;;;;23.45;5.60;;;;;;;17.64;77.21;97454.00;4995564;28;20041;-82
2021/05/30 05:14:00;;;;;;;10.73;5.32;;;;;;;17.55;76.68;97450.28;4987139;28;20071;-82
2021/05/30 05:16:26;;;;;;;5.75;5.15;;;;;;;17.41;77.86;97442.53;5004837;28;20087;-81
2021/05/30 05:18:51;;;;;;;11.07;5.88;;;;;;;17.33;78.27;97451.34;4979342;28;20395;-81
2021/05/30 05:21:17;;;;;;;9.80;5.53;;;;;;;17.53;76.57;97446.84;4979832;28;20044;-83
2021/05/30 05:23:43;;;;;;;6.47;5.18;;;;;;;17.69;74.93;97451.69;4979491;28;20453;-82
2021/05/30 05:26:09;;;;;;;10.05;5.15;;;;;;;17.71;74.89;97453.31;4995392;28;20029;-82
2021/05/30 05:28:35;;;;;;;10.65;5.07;;;;;;;17.78;74.51;97450.88;4998289;28;20025;-81
2021/05/30 05:31:01;;;;;;;6.75;5.32;;;;;;;17.80;74.73;97455.16;5015055;28;20498;-82
2021/05/30 05:33:27;;;;;;;8.88;5.47;;;;;;;17.83;74.21;97457.56;5001612;28;20052;-82
2021/05/30 05:35:53;;;;;;;10.23;5.70;;;;;;;17.58;75.18;97454.56;4985110;28;20022;-81
2021/05/30 05:38:19;;;;;;;9.48;5.00;;;;;;;17.71;74.55;97456.00;4996285;28;20112;-82
2021/05/30 05:40:45;;;;;;;6.57;4.97;;;;;;;17.85;75.07;97466.41;4998797;28;20120;-81
2021/05/30 05:43:11;;;;;;;8.82;5.15;;;;;;;17.78;74.53;97456.28;4999111;28;20456;-82
2021/05/30 05:45:37;;;;;;;8.18;5.05;;;;;;;17.98;73.78;97457.13;4990218;28;20072;-82
2021/05/30 05:48:08;;;;;;;11.88;4.90;;;;;;;18.17;72.61;97468.81;4990534;28;20435;-81
2021/05/30 05:50:33;;;;;;;8.27;5.47;;;;;;;18.34;72.47;97464.50;4995394;28;20137;-81
2021/05/30 05:52:59;;;;;;;7.68;4.93;;;;;;;18.45;70.51;97461.66;4995027;28;20061;-81
2021/05/30 05:55:24;;;;;;;8.35;5.10;;;;;;;18.60;68.46;97462.06;4995518;28;20034;-81
2021/05/30 05:57:51;;;;;;;11.98;5.97;;;;;;;18.61;68.36;97444.81;4978882;28;20037;-81
2021/05/30 06:00:20;;;;;;;10.35;4.97;;;;;;;18.87;69.73;97454.00;4988581;28;20034;-82
2021/05/30 06:02:47;;;;;;;23.88;11.32;;;;;;;19.06;67.03;97461.19;5015503;28;20029;-81
2021/05/30 06:05:19;;;;;;;8.75;6.55;;;;;;;19.10;65.75;97460.75;4984605;28;20034;-82
2021/05/30 06:07:49;;;;;;;10.93;5.50;;;;;;;19.18;66.43;97481.69;5003227;28;20489;-81
2021/05/30 06:10:17;;;;;;;10.38;5.50;;;;;;;19.30;66.84;97473.19;4979365;28;20033;-81
2021/05/30 06:12:43;;;;;;;10.68;5.30;;;;;;;19.48;66.55;97479.56;4998340;28;20041;-80
2021/05/30 06:15:10;;;;;;;11.82;6.30;;;;;;;19.48;67.00;97490.41;4989908;28;20033;-82
2021/05/30 06:17:35;;;;;;;11.23;5.60;;;;;;;19.67;66.84;97486.72;5014190;28;20456;-82
2021/05/30 06:20:02;;;;;;;10.85;5.88;;;;;;;20.03;65.74;97483.03;5000399;28;20048;-82
2021/05/30 06:22:28;;;;;;;12.88;5.18;;;;;;;20.01;63.96;97474.19;4978200;28;20041;-82
2021/05/30 06:24:54;;;;;;;8.90;4.72;;;;;;;20.07;64.22;97483.56;4978390;28;20474;-82
2021/05/30 06:27:20;;;;;;;8.60;4.70;;;;;;;20.25;64.09;97478.13;4994321;28;20108;-82
2021/05/30 06:29:46;;;;;;;7.55;4.40;;;;;;;20.41;62.04;97472.84;4978018;28;20069;-82
2021/05/30 06:32:12;;;;;;;7.57;5.28;;;;;;;20.69;62.20;97476.28;4978204;28;20029;-82
2021/05/30 06:34:37;;;;;;;9.60;4.40;;;;;;;20.63;59.81;97463.34;4996452;28;20398;-82
2021/05/30 06:37:03;;;;;;;9.52;4.47;;;;;;;20.42;59.90;97474.56;5013855;28;20087;-82
2021/05/30 06:39:28;;;;;;;7.90;4.68;;;;;;;20.13;62.24;97479.38;5013440;28;20040;-82
2021/05/30 06:41:54;;;;;;;9.65;4.80;;;;;;;20.62;61.02;97480.66;4997499;28;20029;-81
2021/05/30 06:44:20;;;;;;;9.60;5.10;;;;;;;20.66;62.08;97484.78;4981717;28;20482;-82
2021/05/30 06:46:46;;;;;;;5.45;4.50;;;;;;;19.79;63.36;97496.34;4977844;28;20092;-81
2021/05/30 06:49:12;;;;;;;4.85;4.38;;;;;;;19.52;64.27;97481.97;4992729;28;20057;-81
2021/05/30 06:51:37;;;;;;;8.75;4.18;;;;;;;20.15;63.38;97496.38;4997317;28;20513;-82
2021/05/30 06:54:05;;;;;;;5.72;4.30;;;;;;;20.53;62.47;97494.19;5008561;28;20100;-82
2021/05/30 06:56:31;;;;;;;4.85;3.97;;;;;;;20.60;62.00;97489.00;4978759;28;20461;-82
2021/05/30 06:58:56;;;;;;;5.32;4.20;;;;;;;20.40;63.61;97491.03;4989244;28;20101;-82
2021/05/30 07:01:23;;;;;;;12.77;5.32;;;;;;;20.79;62.35;97483.34;4997259;28;20030;-82
2021/05/30 07:03:49;;;;;;;7.32;3.95;;;;;;;21.31;61.10;97489.63;4985933;28;20036;-82
2021/05/30 07:06:15;;;;;;;6.32;4.18;;;;;;;21.66;58.87;97494.00;4994080;28;20084;-82
2021/05/30 07:08:41;;;;;;;7.18;4.15;;;;;;;22.10;57.01;97492.78;4993832;28;20112;-83
2021/05/30 07:11:07;;;;;;;4.32;3.55;;;;;;;22.42;55.38;97504.75;4991243;28;20539;-82
2021/05/30 07:13:33;;;;;;;8.82;4.43;;;;;;;22.76;56.15;97500.00;4996038;28;20100;-82
2021/05/30 07:15:59;;;;;;;6.32;4.50;;;;;;;22.90;53.21;97502.00;4977617;28;20033;-82
2021/05/30 07:18:24;;;;;;;9.40;4.10;;;;;;;23.47;52.44;97512.84;4977663;28;20041;-81
2021/05/30 07:20:53;;;;;;;7.22;4.57;;;;;;;23.94;51.15;97519.09;5012696;28;20048;-82
2021/05/30 07:23:22;;;;;;;16.02;5.45;;;;;;;24.19;50.67;97515.22;4997106;28;20048;-82
2021/05/30 07:25:49;;;;;;;11.98;4.85;;;;;;;24.85;49.66;97519.19;4994792;28;20111;-82
2021/05/30 07:28:14;;;;;;;22.45;5.50;;;;;;;24.84;47.53;97516.63;4993748;28;20037;-81
2021/05/30 07:30:40;;;;;;;7.68;3.97;;;;;;;25.08;47.68;97519.97;5003231;28;20053;-82
2021/05/30 07:33:06;;;;;;;7.70;4.40;;;;;;;24.93;47.82;97521.84;5013916;28;20029;-82
2021/05/30 07:35:33;;;;;;;5.43;3.80;;;;;;;24.76;48.39;97515.63;4996662;28;20025;-81
2021/05/30 07:37:59;;;;;;;7.90;3.95;;;;;;;25.06;47.20;97524.81;4996841;28;20068;-81
2021/05/30 07:40:32;;;;;;;13.23;4.32;;;;;;;24.76;47.31;97512.88;4996897;28;20071;-81
2021/05/30 07:42:58;;;;;;;6.82;3.67;;;;;;;25.41;45.68;97515.00;4999988;28;20037;-81
2021/05/30 07:45:25;;;;;;;5.22;3.50;;;;;;;25.05;45.16;97503.06;4993119;28;20040;-82
2021/05/30 07:47:58;;;;;;;8.30;3.50;;;;;;;25.13;43.78;97506.56;4998084;28;20049;-81
2021/05/30 07:50:25;;;;;;;5.32;3.50;;;;;;;26.13;42.64;97504.19;4997432;28;20038;-81
2021/05/30 07:52:50;;;;;;;12.55;3.20;;;;;;;26.41;40.37;97502.41;4987874;28;20957;-82
2021/05/30 07:55:16;;;;;;;3.63;3.17;;;;;;;26.67;40.24;97496.34;4995049;28;20041;-82
2021/05/30 07:57:42;;;;;;;3.65;3.22;;;;;;;27.92;36.79;97518.22;4997092;28;20511;-82
2021/05/30 08:00:10;;;;;;;4.30;2.95;;;;;;;28.15;30.43;97498.63;4985702;28;20055;-81
2021/05/30 08:02:36;;;;;;;3.63;2.20;;;;;;;28.05;31.41;97498.19;4984193;28;20029;-82
2021/05/30 08:05:03;;;;;;;6.03;2.30;;;;;;;28.03;32.54;97494.75;5000326;28;20029;-83
2021/05/30 08:07:29;;;;;;;2.60;2.22;;;;;;;28.18;32.72;97509.22;5000372;28;20044;-82
2021/05/30 08:09:54;;;;;;;2.95;2.47;;;;;;;28.00;32.89;97514.41;4983864;28;20034;-83
2021/05/30 08:12:20;;;;;;;3.28;2.33;;;;;;;28.16;33.78;97514.09;5016598;28;20037;-83
2021/05/30 08:14:46;;;;;;;1.83;1.73;;;;;;;29.09;31.69;97502.22;4983987;28;20438;-83
2021/05/30 08:17:11;;;;;;;7.05;1.90;;;;;;;28.77;30.48;97489.28;5012073;28;20041;-82
2021/05/30 08:19:37;;;;;;;4.88;1.75;;;;;;;28.50;30.83;97496.63;4997041;28;20405;-82
2021/05/30 08:22:03;;;;;;;3.55;1.70;;;;;;;29.37;27.89;97483.56;5004814;28;20477;-82
2021/05/30 08:24:29;;;;;;;3.60;1.80;;;;;;;30.48;27.29;97485.09;4988797;28;20588;-83
2021/05/30 08:26:57;;;;;;;3.67;2.17;;;;;;;30.87;28.36;97492.25;4980432;28;20065;-83
2021/05/30 08:29:26;;;;;;;3.90;1.42;;;;;;;30.72;26.06;97477.06;4980185;28;20191;-83
2021/05/30 08:31:52;;;;;;;3.22;1.50;;;;;;;30.14;26.38;97484.63;4980214;28;20053;-82
2021/05/30 08:34:19;;;;;;;3.95;1.85;;;;;;;29.57;27.61;97472.47;4980367;28;20048;-82
2021/05/30 08:36:45;;;;;;;2.42;2.22;;;;;;;28.38;28.31;97485.38;4980121;28;20040;-82
2021/05/30 08:39:11;;;;;;;3.03;2.33;;;;;;;28.65;29.48;97500.06;4980237;28;20478;-83
2021/05/30 08:41:38;;;;;;;2.38;1.60;;;;;;;29.24;28.16;97478.06;4996550;28;20030;-83
2021/05/30 08:44:04;;;;;;;4.35;2.78;;;;;;;29.51;29.37;97476.09;4996358;28;20030;-83
2021/05/30 08:46:30;;;;;;;2.03;1.70;;;;;;;28.50;29.10;97482.84;4980481;28;20493;-83
2021/05/30 08:48:57;;;;;;;2.25;1.75;;;;;;;27.51;30.28;97480.75;4979955;28;20030;-83
2021/05/30 08:51:23;;;;;;;2.22;1.60;;;;;;;28.47;30.95;97497.03;4980150;28;20468;-83
2021/05/30 08:53:49;;;;;;;2.85;1.45;;;;;;;29.18;27.89;97478.88;4994680;28;20057;-83
2021/05/30 08:56:17;;;;;;;1.70;1.58;;;;;;;30.08;27.17;97478.06;4980226;28;20497;-83
2021/05/30 08:58:50;;;;;;;2.22;1.60;;;;;;;31.14;25.82;97479.06;4980188;28;20034;-83
2021/05/30 09:01:18;;;;;;;3.08;2.13;;;;;;;30.47;27.15;97472.34;4977388;28;20050;-83
2021/05/30 09:04:06;;;;;;;5.15;1.90;;;;;;;30.56;27.48;97490.34;4993035;28;20493;-83
2021/05/30 09:06:35;;;;;;;6.25;3.05;;;;;;;30.20;26.32;97492.88;4980891;28;20473;-83
2021/05/30 09:09:03;;;;;;;8.52;2.10;;;;;;;29.56;27.14;97474.38;4979644;28;20037;-83
2021/05/30 09:11:48;;;;;;;5.38;3.35;;;;;;;29.24;27.65;97483.59;4979714;28;20029;-82
2021/05/30 09:14:24;;;;;;;4.43;2.17;;;;;;;29.01;27.55;97477.63;4979906;28;20037;-83
2021/05/30 09:16:52;;;;;;;6.43;3.78;;;;;;;29.54;28.27;97490.31;4979958;28;20037;-83
2021/05/30 09:19:44;;;;;;;3.08;1.80;;;;;;;30.02;27.54;97488.03;4996289;28;20113;-83
2021/05/30 09:22:32;;;;;;;4.03;2.08;;;;;;;29.71;28.22;97482.41;4988698;28;20033;-83
2021/05/30 09:24:58;;;;;;;5.05;2.45;;;;;;;28.97;30.09;97487.38;4979544;28;20097;-83
2021/05/30 09:27:25;;;;;;;8.35;3.17;;;;;;;28.95;28.67;97483.97;4995731;28;20104;-83
2021/05/30 09:30:12;;;;;;;6.85;4.05;;;;;;;28.94;29.48;97487.81;5006278;28;20191;-82
2021/05/30 09:32:54;;;;;;;3.80;1.60;;;;;;;28.95;28.96;97473.81;5000611;28;20048;-83
2021/05/30 09:35:20;;;;;;;;;;;;;;;29.30;28.66;97485.47;5000112;28;20033;-82
2021/05/30 09:38:06;;;;;;;15.32;1.85;;;;;;;28.96;28.00;97467.25;4988429;28;19914;-83
2021/05/30 09:40:35;;;;;;;6.22;2.22;;;;;;;29.59;26.12;97467.63;4995677;28;20032;-83
2021/05/30 09:43:07;;;;;;;3.80;1.60;;;;;;;29.47;25.40;97455.56;5002695;28;20117;-83
2021/05/30 09:45:33;;;;;;;2.80;1.80;;;;;;;29.40;26.41;97455.56;4979747;28;20546;-82
2021/05/30 09:48:01;;;;;;;3.70;1.55;;;;;;;29.86;26.17;97454.59;5011405;28;20116;-82
2021/05/30 09:50:32;;;;;;;5.53;1.45;;;;;;;29.77;26.30;97461.38;5006525;28;20121;-83
2021/05/30 09:53:00;;;;;;;2.90;1.55;;;;;;;30.30;27.30;97464.78;4975747;28;20084;-83
2021/05/30 09:55:28;;;;;;;3.03;1.90;;;;;;;30.74;27.58;97458.34;5017870;28;20053;-83
2021/05/30 09:58:09;;;;;;;8.05;1.83;;;;;;;31.40;26.08;97448.41;4986746;28;20092;-82
2021/05/30 10:00:35;;;;;;;4.43;1.50;;;;;;;31.76;25.71;97458.69;4989594;28;20133;-83
2021/05/30 10:03:01;;;;;;;2.58;1.60;;;;;;;32.32;26.27;97457.56;4992857;28;20125;-83
2021/05/30 10:05:26;;;;;;;2.75;1.40;;;;;;;31.99;24.17;97438.59;4985059;28;20129;-82
2021/05/30 10:07:53;;;;;;;1.65;1.40;;;;;;;31.74;25.20;97432.31;4991303;28;20099;-81
2021/05/30 10:10:19;;;;;;;2.15;1.90;;;;;;;32.29;28.31;97458.03;4997319;28;20033;-83
2021/05/30 10:12:44;;;;;;;2.47;1.60;;;;;;;32.07;26.96;97444.69;4986683;28;20116;-83
2021/05/30 10:15:11;;;;;;;4.55;1.80;;;;;;;32.72;25.02;97442.91;4996044;28;20037;-83
2021/05/30 10:17:38;;;;;;;1.40;1.30;;;;;;;32.70;23.42;97428.44;4994647;28;20041;-83
2021/05/30 10:20:06;;;;;;;3.67;1.58;;;;;;;32.85;22.89;97433.53;5011796;28;20028;-83
2021/05/30 10:22:32;;;;;;;9.40;1.70;;;;;;;33.39;23.39;97432.38;5001094;28;20402;-83
2021/05/30 10:24:58;;;;;;;3.58;1.60;;;;;;;33.66;23.69;97439.13;4977993;28;20025;-83
2021/05/30 10:27:26;;;;;;;2.17;1.98;;;;;;;34.87;23.68;97428.81;4978178;28;20040;-83
2021/05/30 10:30:07;;;;;;;3.25;1.38;;;;;;;35.87;21.12;97435.16;4993753;28;20045;-83
2021/05/30 10:32:34;;;;;;;1.95;1.40;;;;;;;36.46;19.45;97421.38;5000898;28;20033;-83
2021/05/30 10:35:19;;;;;;;1.77;1.67;;;;;;;34.39;19.93;97396.81;4994172;28;20091;-82
2021/05/30 10:37:57;;;;;;;18.33;5.47;;;;;;;34.99;23.25;97407.31;5000612;28;20036;-83
2021/05/30 10:40:23;;;;;;;9.63;2.63;;;;;;;35.58;21.31;97409.41;4997457;28;20025;-83
2021/05/30 10:43:07;;;;;;;3.67;1.85;;;;;;;36.14;19.74;97397.06;5013834;28;20049;-83
2021/05/30 10:45:37;;;;;;;2.53;2.30;;;;;;;35.61;21.28;97403.31;5013704;28;20021;-83
2021/05/30 10:48:05;;;;;;;2.50;1.83;;;;;;;35.00;20.95;97403.44;5013597;28;20445;-83
2021/05/30 10:50:36;;;;;;;1.50;1.40;;;;;;;35.43;19.85;97406.38;5013829;28;20830;-83
2021/05/30 10:53:02;;;;;;;7.27;2.00;;;;;;;36.69;20.82;97416.34;4989173;28;20091;-85
2021/05/30 10:55:29;;;;;;;2.42;1.95;;;;;;;38.35;18.62;97402.69;4998208;28;20033;-86
2021/05/30 10:57:56;;;;;;;8.23;1.95;;;;;;;38.77;19.24;97422.06;4990553;28;20520;-85
2021/05/30 11:00:31;;;;;;;9.05;2.10;;;;;;;38.17;19.47;97411.56;4978627;28;20029;-85
2021/05/30 11:05:39;;;;;;;6.85;2.10;;;;;;;34.82;21.83;97418.44;5012086;28;20045;-85
2021/05/30 11:08:04;;;;;;;7.28;1.85;;;;;;;32.92;22.99;97412.09;5010653;28;20511;-83
2021/05/30 11:10:30;;;;;;;5.35;1.52;;;;;;;31.43;26.22;97425.84;5001925;28;20125;-84
2021/05/30 11:12:57;;;;;;;3.58;1.77;;;;;;;30.44;26.67;97427.75;4994017;28;20029;-84
2021/05/30 11:15:24;;;;;;;6.13;2.13;;;;;;;29.93;27.15;97411.28;5004617;28;20040;-84
2021/05/30 11:17:58;;;;;;;7.05;2.35;;;;;;;29.16;28.84;97431.41;4990696;28;20121;-84
2021/05/30 11:20:42;;;;;;;2.88;2.00;;;;;;;28.54;29.58;97437.34;4977830;28;20174;-84
2021/05/30 11:23:19;;;;;;;4.90;2.35;;;;;;;28.07;30.36;97440.22;4977546;28;20121;-84
2021/05/30 11:26:03;;;;;;;8.05;2.40;;;;;;;27.97;29.90;97446.06;4983486;28;20393;-85
2021/05/30 11:28:30;;;;;;;9.60;2.28;;;;;;;27.59;30.73;97447.63;5010255;28;20028;-85
2021/05/30 11:31:06;;;;;;;6.93;2.30;;;;;;;27.75;31.18;97450.00;5002559;28;20553;-84
2021/05/30 11:33:44;;;;;;;4.32;2.00;;;;;;;27.45;30.78;97446.69;4981560;28;20025;-84
2021/05/30 11:36:16;;;;;;;12.18;3.35;;;;;;;27.04;31.75;97435.63;4980864;28;20030;-85